Time;durP1;ratioP1;P1;durP2;ratioP2;P2;SDS_P1;SDS_P2;PMS_P1;PMS_P2;Temp;Humidity;BMP_temperature;BMP_pressure;BME280_temperature;BME280_humidity;BME280_pressure;Samples;Min_cycle;Max_cycle;Signal;HPM_P1;HPM_P2
2021/06/12 13:33:36;;;;;;;4.43;2.00;;;22.10;54.40;;;;;;6289199;22;266872;-80
2021/06/12 13:36:03;;;;;;;6.90;2.22;;;22.00;54.20;;;;;;6260788;22;20008;-80
2021/06/12 13:38:33;;;;;;;5.93;2.33;;;22.10;53.60;;;;;;6275167;22;20453;-80
2021/06/12 13:41:11;;;;;;;4.55;2.03;;;22.00;54.10;;;;;;6276548;22;19996;-80
2021/06/12 13:43:45;;;;;;;6.15;2.20;;;22.00;53.30;;;;;;6275199;22;19999;-80
2021/06/12 13:46:16;;;;;;;4.68;1.50;;;22.00;53.10;;;;;;6275781;22;20006;-81
2021/06/12 13:48:44;;;;;;;4.82;1.80;;;22.10;54.30;;;;;;6274933;22;20475;-86
2021/06/12 13:51:10;;;;;;;4.53;1.58;;;22.10;54.50;;;;;;6274587;22;20334;-80
2021/06/12 13:53:41;;;;;;;4.80;1.90;;;22.20;53.90;;;;;;6275539;22;20011;-79
2021/06/12 13:56:15;;;;;;;6.13;2.00;;;22.30;54.70;;;;;;6275393;22;20452;-81
2021/06/12 13:58:45;;;;;;;5.60;2.30;;;22.30;55.00;;;;;;6276443;22;20003;-80
2021/06/12 14:01:13;;;;;;;6.85;2.17;;;22.30;54.70;;;;;;6274973;22;20008;-79
2021/06/12 14:03:39;;;;;;;6.25;2.20;;;22.40;54.50;;;;;;6275104;22;20050;-79
2021/06/12 14:38:38;;;;;;;5.13;1.52;;;22.00;52.10;;;;;;6270915;22;20027;-79
2021/06/12 14:41:06;;;;;;;5.13;1.73;;;21.90;51.90;;;;;;6279300;22;20011;-80
2021/06/12 14:43:36;;;;;;;26.67;3.25;;;21.90;52.40;;;;;;6279454;22;20033;-79
2021/06/12 14:46:05;;;;;;;4.32;1.65;;;22.00;52.60;;;;;;6279351;22;20112;-82
2021/06/12 14:48:42;;;;;;;3.05;1.10;;;22.10;52.80;;;;;;6279030;22;20013;-81
2021/06/12 14:51:13;;;;;;;2.80;1.30;;;22.10;52.40;;;;;;6280353;22;19999;-82
2021/06/12 14:53:41;;;;;;;4.45;1.55;;;22.10;52.40;;;;;;6253538;22;20035;-80
2021/06/12 14:56:15;;;;;;;4.53;1.73;;;22.20;52.10;;;;;;6278352;22;20008;-81
2021/06/12 14:58:50;;;;;;;3.22;1.38;;;22.20;52.60;;;;;;6278253;22;20007;-82
2021/06/12 15:01:18;;;;;;;3.55;1.38;;;22.20;52.00;;;;;;6279243;22;19999;-82
2021/06/12 15:03:44;;;;;;;1.88;1.02;;;22.10;52.00;;;;;;6278957;22;20007;-81
2021/06/12 15:06:31;;;;;;;1.90;1.02;;;22.10;51.70;;;;;;6304762;22;19995;-83
2021/06/12 15:08:58;;;;;;;3.47;1.48;;;22.20;52.30;;;;;;6304441;22;20015;-82
2021/06/12 15:11:24;;;;;;;3.97;1.42;;;22.10;51.60;;;;;;6253387;22;20007;-81
2021/06/12 15:13:50;;;;;;;4.63;1.20;;;22.00;51.60;;;;;;6278916;22;20073;-83
2021/06/12 15:16:15;;;;;;;3.03;1.40;;;21.90;51.80;;;;;;6252390;22;20417;-82
2021/06/12 15:18:41;;;;;;;2.28;1.20;;;21.90;51.50;;;;;;6278205;22;20000;-82
2021/06/12 15:21:07;;;;;;;2.85;1.00;;;21.90;51.30;;;;;;6278452;22;20086;-81
2021/06/12 15:23:33;;;;;;;3.30;1.30;;;21.90;50.90;;;;;;6278518;22;20086;-81
2021/06/12 15:26:18;;;;;;;1.83;1.20;;;21.90;51.20;;;;;;6279628;22;20015;-84
2021/06/12 15:28:52;;;;;;;5.00;1.40;;;21.90;51.70;;;;;;6255465;22;20017;-86
2021/06/12 15:31:34;;;;;;;;;;;;;;;;;;;;;
2021/06/12 15:34:18;;;;;;;2.83;1.20;;;21.80;50.40;;;;;;6309962;22;20484;-84
2021/06/12 15:36:44;;;;;;;4.43;1.42;;;21.70;50.00;;;;;;6283283;22;20029;-86
2021/06/12 15:39:50;;;;;;;4.93;1.60;;;21.60;50.50;;;;;;6282188;22;20060;-84
2021/06/12 15:42:58;;;;;;;3.83;1.52;;;21.60;51.20;;;;;;6279386;22;20018;-84
2021/06/12 15:49:05;;;;;;;4.93;1.65;;;21.60;52.90;;;;;;6244546;22;20038;-84
2021/06/12 15:52:02;;;;;;;3.42;1.40;;;21.60;53.00;;;;;;6280958;22;19995;-84
2021/06/12 15:54:51;;;;;;;1.67;1.27;;;21.70;53.40;;;;;;6281271;22;20008;-85
2021/06/12 15:57:20;;;;;;;4.60;1.60;;;21.70;53.40;;;;;;6260566;22;20010;-82
2021/06/12 15:59:46;;;;;;;7.28;1.50;;;21.70;53.20;;;;;;6279842;22;20532;-81
2021/06/12 16:02:11;;;;;;;4.35;2.30;;;21.60;52.50;;;;;;6279163;22;20417;-82
2021/06/12 16:04:37;;;;;;;30.20;27.13;;;21.60;52.70;;;;;;6254102;22;20010;-83
2021/06/12 16:07:09;;;;;;;11.32;10.07;;;21.70;53.60;;;;;;6254213;22;20086;-83
2021/06/12 16:09:35;;;;;;;6.85;4.82;;;21.70;53.80;;;;;;6306726;22;20455;-82
2021/06/12 16:12:11;;;;;;;9.52;6.07;;;21.70;54.00;;;;;;6279432;22;20433;-85
2021/06/12 16:14:39;;;;;;;10.05;4.50;;;21.60;54.30;;;;;;6278367;22;20007;-83
2021/06/12 16:17:09;;;;;;;46.42;42.28;;;21.60;54.40;;;;;;6279366;22;20003;-84
2021/06/12 16:19:43;;;;;;;22.38;20.25;;;21.60;55.00;;;;;;6307061;22;20325;-79
2021/06/12 16:22:11;;;;;;;11.55;9.98;;;21.60;55.20;;;;;;6278648;22;20053;-81
2021/06/12 16:24:37;;;;;;;5.30;3.35;;;21.60;55.40;;;;;;6306252;22;19995;-79
2021/06/12 16:27:06;;;;;;;5.82;2.67;;;21.60;54.60;;;;;;6253921;22;20017;-80
2021/06/12 16:29:32;;;;;;;4.50;1.75;;;21.60;54.20;;;;;;6253698;22;20090;-80
2021/06/12 16:31:58;;;;;;;4.70;1.67;;;21.60;53.20;;;;;;6279965;22;20092;-80
2021/06/12 16:42:30;;;;;;;;;;;;;;;;;;;;;
2021/06/12 18:45:34;;;;;;;5.07;2.00;;;19.50;56.70;;;;;;6010993;23;20004;-86
2021/06/12 18:51:46;;;;;;;;;;;;;;;;;;;;;
2021/06/12 18:54:52;;;;;;;;;;;;;;;;;;;;;
2021/06/12 18:58:05;;;;;;;6.40;3.20;;;19.20;57.70;;;;;;6249613;22;20087;-85
2021/06/12 19:01:19;;;;;;;;;;;;;;;;;;;;;
2021/06/12 19:18:32;;;;;;;6.22;2.65;;;18.80;59.90;;;;;;5976961;24;20376;-86
2021/06/12 19:25:40;;;;;;;;;;;;;;;;;;;;;
2021/06/12 19:43:26;;;;;;;;;;;;;;;;;;;;;
2021/06/12 19:47:07;;;;;;;;;;;;;;;;;;;;;
2021/06/12 19:50:41;;;;;;;;;;;;;;;;;;;;;
2021/06/12 20:04:14;;;;;;;9.52;3.75;;;18.10;62.10;;;;;;5937322;23;20035;-82
2021/06/12 20:06:43;;;;;;;8.20;3.30;;;18.10;62.20;;;;;;6073757;23;20006;-87
2021/06/12 20:09:26;;;;;;;;;;;;;;;;;;;;;
